createdAt,value
2023-02-12T00:01:28.796Z,102475.35
2023-02-12T00:03:58.255Z,102481.53
2023-02-12T00:06:26.710Z,102486.35
2023-02-12T00:08:56.540Z,102486.75
2023-02-12T00:11:29.612Z,102488.54
2023-02-12T00:13:58.789Z,102491.09
2023-02-12T00:16:29.167Z,102487.59
2023-02-12T00:18:59.018Z,102486.82
2023-02-12T00:21:27.895Z,102492.29
2023-02-12T00:23:56.946Z,102490.35
2023-02-12T00:26:25.621Z,102495.34
2023-02-12T00:28:54.999Z,102497.29
2023-02-12T00:31:26.768Z,102504.84
2023-02-12T00:33:59.463Z,102507.02
2023-02-12T00:36:30.998Z,102506.85
2023-02-12T00:39:01.149Z,102507.38
2023-02-12T00:41:29.347Z,102513.89
2023-02-12T00:43:57.535Z,102521.88
2023-02-12T00:46:25.701Z,102528.24
2023-02-12T00:48:54.011Z,102531.91
2023-02-12T00:51:22.563Z,102530.48
2023-02-12T00:53:50.948Z,102531.21
2023-02-12T00:56:18.994Z,102532.08
2023-02-12T00:58:50.258Z,102528.27
2023-02-12T01:01:18.572Z,102525.98
2023-02-12T01:03:46.760Z,102532.48
2023-02-12T01:06:15.125Z,102538.25
2023-02-12T01:08:43.323Z,102542.80
2023-02-12T01:11:13.845Z,102541.00
2023-02-12T01:13:41.964Z,102542.33
2023-02-12T01:16:16.476Z,102544.73
2023-02-12T01:18:46.112Z,102546.70
2023-02-12T01:21:20.468Z,102552.48
2023-02-12T01:23:48.783Z,102552.63
2023-02-12T01:26:19.359Z,102550.58
2023-02-12T01:28:53.528Z,102553.59
2023-02-12T01:31:27.068Z,102555.02
2023-02-12T01:33:57.724Z,102560.05
2023-02-12T01:36:29.337Z,102563.19
2023-02-12T01:38:59.212Z,102569.03
2023-02-12T01:41:30.864Z,102570.52
2023-02-12T01:44:19.392Z,102574.41
2023-02-12T01:46:50.781Z,102577.19
2023-02-12T01:49:24.568Z,102580.27
2023-02-12T01:51:59.323Z,102586.77
2023-02-12T01:54:29.198Z,102587.48
2023-02-12T01:56:57.555Z,102586.61
2023-02-12T01:59:26.174Z,102590.17
2023-02-12T02:01:56.133Z,102585.53
2023-02-12T02:04:29.528Z,102582.77
2023-02-12T02:07:06.592Z,102581.85
2023-02-12T02:09:37.567Z,102588.14
2023-02-12T02:12:25.353Z,102594.46
2023-02-12T02:14:58.119Z,102599.04
2023-02-12T02:17:37.806Z,102598.95
2023-02-12T02:20:11.771Z,102605.00
2023-02-12T02:23:04.224Z,102602.84
2023-02-12T02:25:32.207Z,102603.60
2023-02-12T02:28:28.749Z,102604.91
2023-02-12T02:31:42.311Z,102611.56
2023-02-12T02:34:43.749Z,102610.29
2023-02-12T02:37:23.303Z,102610.61
2023-02-12T02:40:09.720Z,102613.48
2023-02-12T02:42:47.304Z,102614.54
2023-02-12T02:45:41.578Z,102611.09
2023-02-12T02:48:34.131Z,102610.95
2023-02-12T02:51:09.517Z,102613.88
2023-02-12T02:53:57.739Z,102614.92
2023-02-12T02:56:27.903Z,102615.96
2023-02-12T02:59:03.895Z,102619.39
2023-02-12T03:01:43.503Z,102623.50
2023-02-12T03:04:24.497Z,102627.02
2023-02-12T03:06:59.492Z,102635.70
2023-02-12T03:09:47.202Z,102639.30
2023-02-12T03:12:38.727Z,102647.98
2023-02-12T03:15:17.045Z,102651.29
2023-02-12T03:17:47.969Z,102653.36
2023-02-12T03:20:21.150Z,102652.94
2023-02-12T03:22:54.752Z,102656.91
2023-02-12T03:25:41.854Z,102666.52
2023-02-12T03:28:16.542Z,102671.81
2023-02-12T03:31:18.136Z,102672.80
2023-02-12T03:33:48.927Z,102673.67
2023-02-12T03:36:36.593Z,102674.76
2023-02-12T03:39:35.490Z,102678.86
2023-02-12T03:42:13.219Z,102678.45
2023-02-12T03:44:48.142Z,102681.70
2023-02-12T03:47:25.477Z,102680.64
2023-02-12T03:50:02.766Z,102679.33
2023-02-12T03:52:31.387Z,102683.91
2023-02-12T03:54:59.750Z,102680.95
2023-02-12T03:57:34.241Z,102685.39
2023-02-12T04:00:06.648Z,102688.55
2023-02-12T04:02:43.375Z,102691.78
2023-02-12T04:05:28.090Z,102695.46
2023-02-12T04:07:57.511Z,102697.34
2023-02-12T04:10:36.073Z,102706.30
2023-02-12T04:13:15.296Z,102705.27
2023-02-12T04:15:49.573Z,102704.80
2023-02-12T04:18:45.876Z,102704.28
2023-02-12T04:21:32.249Z,102702.85
2023-02-12T04:24:08.400Z,102704.25
2023-02-12T04:26:39.583Z,102711.42
2023-02-12T04:29:26.259Z,102714.08
2023-02-12T04:32:23.537Z,102714.34
2023-02-12T04:35:16.750Z,102720.98
2023-02-12T04:38:02.636Z,102724.91
2023-02-12T04:40:31.346Z,102729.06
2023-02-12T04:42:59.595Z,102731.94
2023-02-12T04:45:31.569Z,102729.14
2023-02-12T04:48:00.627Z,102728.55
2023-02-12T04:50:40.583Z,102729.97
2023-02-12T04:53:09.989Z,102731.40
2023-02-12T04:55:38.479Z,102726.61
2023-02-12T04:58:07.145Z,102727.37
2023-02-12T05:00:35.558Z,102727.57
2023-02-12T05:03:04.144Z,102721.71
2023-02-12T05:05:32.794Z,102719.90
2023-02-12T05:08:01.004Z,102720.86
2023-02-12T05:10:29.166Z,102723.92
2023-02-12T05:12:57.218Z,102731.90
2023-02-12T05:15:25.220Z,102734.73
2023-02-12T05:17:53.366Z,102741.06
2023-02-12T05:20:21.615Z,102735.87
2023-02-12T05:22:53.106Z,102732.59
2023-02-12T05:25:21.596Z,102731.84
2023-02-12T05:27:49.667Z,102730.87
2023-02-12T05:30:17.855Z,102735.05
2023-02-12T05:32:45.935Z,102739.60
2023-02-12T05:35:14.150Z,102744.20
2023-02-12T05:37:42.453Z,102747.33
2023-02-12T05:40:11.223Z,102749.23
2023-02-12T05:42:39.404Z,102746.64
2023-02-12T05:45:07.784Z,102743.33
2023-02-12T05:47:35.861Z,102744.70
2023-02-12T05:50:04.135Z,102744.75
2023-02-12T05:52:32.171Z,102745.73
2023-02-12T05:55:00.506Z,102746.20
2023-02-12T05:57:28.563Z,102749.14
2023-02-12T05:59:56.659Z,102756.05
2023-02-12T06:02:24.813Z,102759.33
2023-02-12T06:04:52.869Z,102765.24
2023-02-12T06:07:21.706Z,102769.39
2023-02-12T06:09:49.806Z,102772.28
2023-02-12T06:12:17.971Z,102779.25
2023-02-12T06:14:46.003Z,102784.95
2023-02-12T06:17:14.203Z,102783.23
2023-02-12T06:19:42.239Z,102785.88
2023-02-12T06:22:10.268Z,102794.65
2023-02-12T06:24:39.446Z,102799.09
2023-02-12T06:27:07.493Z,102801.13
2023-02-12T06:29:35.783Z,102805.23
2023-02-12T06:32:04.274Z,102807.45
2023-02-12T06:34:32.516Z,102809.30
2023-02-12T06:37:00.843Z,102807.44
2023-02-12T06:39:28.917Z,102805.16
2023-02-12T06:41:56.952Z,102804.96
2023-02-12T06:44:24.957Z,102805.48
2023-02-12T06:46:53.745Z,102803.36
2023-02-12T06:49:21.921Z,102804.85
2023-02-12T06:51:49.946Z,102805.70
2023-02-12T06:54:18.799Z,102811.22
2023-02-12T06:56:46.906Z,102812.59
2023-02-12T06:59:16.775Z,102810.70
2023-02-12T07:01:45.088Z,102806.22
2023-02-12T07:04:13.273Z,102803.13
2023-02-12T07:06:41.481Z,102798.54
2023-02-12T07:09:09.516Z,102791.44
2023-02-12T07:11:38.614Z,102787.16
2023-02-12T07:14:07.384Z,102793.74
2023-02-12T07:16:35.770Z,102790.64
2023-02-12T07:19:04.081Z,102793.02
2023-02-12T07:21:32.312Z,102787.89
2023-02-12T07:24:00.436Z,102789.22
2023-02-12T07:26:28.973Z,102786.36
2023-02-12T07:28:58.764Z,102784.80
2023-02-12T07:31:27.086Z,102779.81
2023-02-12T07:33:57.661Z,102780.96
2023-02-12T07:36:28.836Z,102781.71
2023-02-12T07:38:57.715Z,102777.98
2023-02-12T07:41:28.560Z,102784.56
2023-02-12T07:43:59.281Z,102782.88
2023-02-12T07:46:30.580Z,102779.61
2023-02-12T07:49:00.462Z,102779.64
2023-02-12T07:51:29.026Z,102786.55
2023-02-12T07:53:57.106Z,102785.75
2023-02-12T07:56:31.039Z,102782.10
2023-02-12T07:59:01.731Z,102782.34
2023-02-12T08:01:38.919Z,102782.89
2023-02-12T08:04:10.008Z,102783.39
2023-02-12T08:06:41.106Z,102782.23
2023-02-12T08:09:11.508Z,102777.95
2023-02-12T08:11:41.743Z,102781.23
2023-02-12T08:14:15.757Z,102782.92
2023-02-12T08:16:45.789Z,102780.02
2023-02-12T08:19:20.244Z,102781.55
2023-02-12T08:21:53.750Z,102783.06
2023-02-12T08:24:24.675Z,102776.52
2023-02-12T08:26:53.011Z,102780.80
2023-02-12T08:29:24.486Z,102780.66
2023-02-12T08:31:58.108Z,102773.45
2023-02-12T08:34:32.898Z,102769.68
2023-02-12T08:37:04.240Z,102766.27
2023-02-12T08:39:32.361Z,102770.58
2023-02-12T08:42:01.728Z,102766.77
2023-02-12T08:44:30.190Z,102763.41
2023-02-12T08:46:58.349Z,102759.39
2023-02-12T08:49:29.251Z,102760.25
2023-02-12T08:51:59.417Z,102764.88
2023-02-12T08:54:29.910Z,102771.23
2023-02-12T08:57:00.536Z,102770.01
2023-02-12T08:59:28.980Z,102772.27
2023-02-12T09:01:57.372Z,102770.02
2023-02-12T09:04:27.922Z,102761.19
2023-02-12T09:06:56.191Z,102764.06
2023-02-12T09:09:24.731Z,102760.07
2023-02-12T09:11:53.038Z,102753.93
2023-02-12T09:14:24.609Z,102751.23
2023-02-12T09:16:54.590Z,102754.23
2023-02-12T09:19:23.179Z,102760.02
2023-02-12T09:21:56.435Z,102767.05
2023-02-12T09:24:27.617Z,102764.59
2023-02-12T09:26:56.889Z,102766.14
2023-02-12T09:29:25.072Z,102771.64
2023-02-12T09:31:53.437Z,102768.17
2023-02-12T09:34:22.012Z,102760.29
2023-02-12T09:36:50.472Z,102753.37
2023-02-12T09:39:18.547Z,102751.98
2023-02-12T09:42:03.200Z,102749.52
2023-02-12T09:44:45.720Z,102747.40
2023-02-12T09:47:24.067Z,102745.77
2023-02-12T09:50:13.673Z,102756.37
2023-02-12T09:52:41.809Z,102753.22
2023-02-12T09:55:18.155Z,102748.35
2023-02-12T09:57:46.720Z,102754.08
2023-02-12T10:00:22.996Z,102752.02
2023-02-12T10:02:56.328Z,102748.56
2023-02-12T10:05:48.277Z,102749.46
2023-02-12T10:08:27.097Z,102751.18
2023-02-12T10:10:57.884Z,102748.58
2023-02-12T10:13:38.194Z,102749.59
2023-02-12T10:16:54.687Z,102742.52
2023-02-12T10:19:41.423Z,102737.64
2023-02-12T10:22:27.756Z,102731.75
2023-02-12T10:25:24.216Z,102725.69
2023-02-12T10:27:56.849Z,102717.21
2023-02-12T10:30:38.003Z,102712.20
2023-02-12T10:33:16.016Z,102706.30
2023-02-12T10:35:50.372Z,102701.42
2023-02-12T10:38:29.695Z,102687.31
2023-02-12T10:41:02.009Z,102692.31
2023-02-12T10:43:30.772Z,102685.25
2023-02-12T10:45:59.084Z,102689.36
2023-02-12T10:48:42.779Z,102684.30
2023-02-12T10:51:41.171Z,102686.55
2023-02-12T10:54:32.368Z,102692.98
2023-02-12T10:57:11.722Z,102698.73
2023-02-12T10:59:44.956Z,102695.32
2023-02-12T11:02:23.606Z,102686.89
2023-02-12T11:04:53.908Z,102679.02
2023-02-12T11:07:23.334Z,102679.42
2023-02-12T11:09:53.811Z,102678.13
2023-02-12T11:12:48.374Z,102669.55
2023-02-12T11:15:19.629Z,102664.09
2023-02-12T11:18:09.062Z,102655.13
2023-02-12T11:20:51.791Z,102653.98
2023-02-12T11:23:27.989Z,102666.85
2023-02-12T11:26:00.469Z,102671.15
2023-02-12T11:28:30.258Z,102661.58
2023-02-12T11:31:22.671Z,102669.97
2023-02-12T11:34:12.919Z,102681.98
2023-02-12T11:36:44.058Z,102667.20
2023-02-12T11:39:34.941Z,102675.09
2023-02-12T11:42:16.468Z,102667.10
2023-02-12T11:44:59.462Z,102673.94
2023-02-12T11:47:31.894Z,102671.55
2023-02-12T11:50:04.289Z,102662.94
2023-02-12T11:52:35.735Z,102661.45
2023-02-12T11:55:18.366Z,102661.48
2023-02-12T11:57:49.019Z,102649.92
2023-02-12T12:00:22.709Z,102663.73
2023-02-12T12:03:22.658Z,102666.59
2023-02-12T12:06:00.911Z,102655.73
2023-02-12T12:08:36.809Z,102643.55
2023-02-12T12:11:15.028Z,102637.86
2023-02-12T12:14:22.687Z,102638.25
2023-02-12T12:17:15.404Z,102626.64
2023-02-12T12:20:11.397Z,102633.14
2023-02-12T12:22:42.559Z,102646.66
2023-02-12T12:25:20.583Z,102636.02
2023-02-12T12:28:03.013Z,102637.73
2023-02-12T12:30:59.554Z,102622.67
2023-02-12T12:33:33.827Z,102616.67
2023-02-12T12:36:14.426Z,102605.12
2023-02-12T12:39:02.368Z,102593.94
2023-02-12T12:41:51.621Z,102586.24
2023-02-12T12:44:50.601Z,102572.88
2023-02-12T12:47:49.745Z,102580.36
2023-02-12T12:50:55.937Z,102581.77
2023-02-12T12:53:24.104Z,102582.02
2023-02-12T12:56:01.487Z,102575.91
2023-02-12T12:58:38.418Z,102573.96
2023-02-12T13:01:23.553Z,102591.39
2023-02-12T13:04:13.684Z,102596.73
2023-02-12T13:06:49.360Z,102621.80
2023-02-12T13:09:46.217Z,102614.56
2023-02-12T13:12:43.439Z,102626.05
2023-02-12T13:15:46.009Z,102637.18
2023-02-12T13:18:36.347Z,102638.77
2023-02-12T13:21:31.151Z,102629.16
2023-02-12T13:24:14.396Z,102624.23
2023-02-12T13:26:56.890Z,102608.63
2023-02-12T13:29:48.589Z,102612.41
2023-02-12T13:32:24.271Z,102605.44
2023-02-12T13:34:54.936Z,102613.36
2023-02-12T13:37:38.832Z,102608.70
2023-02-12T13:40:14.538Z,102602.27
2023-02-12T13:43:20.329Z,102612.84
2023-02-12T13:46:01.805Z,102608.67
2023-02-12T13:48:44.769Z,102614.80
2023-02-12T13:51:33.793Z,102608.89
2023-02-12T13:54:12.839Z,102603.68
2023-02-12T13:56:45.414Z,102598.05
2023-02-12T13:59:34.472Z,102597.16
2023-02-12T14:02:26.067Z,102600.95
2023-02-12T14:04:54.172Z,102604.41
2023-02-12T14:07:23.130Z,102598.18
2023-02-12T14:09:51.211Z,102601.20
2023-02-12T14:12:25.217Z,102607.53
2023-02-12T14:15:03.867Z,102600.13
2023-02-12T14:17:31.966Z,102590.84
2023-02-12T14:20:24.117Z,102581.40
2023-02-12T14:22:52.566Z,102580.94
2023-02-12T14:37:37.627Z,102596.79
2023-02-12T14:40:34.250Z,102603.30
2023-02-12T14:43:22.062Z,102607.72
2023-02-12T14:45:50.543Z,102603.98
2023-02-12T14:49:00.787Z,102612.66
2023-02-12T14:51:54.248Z,102613.05
2023-02-12T15:05:02.680Z,102588.81
2023-02-12T15:07:56.355Z,102586.23
2023-02-12T15:10:54.388Z,102575.61
2023-02-12T15:13:22.509Z,102580.31
2023-02-12T15:16:01.073Z,102582.58
2023-02-12T15:18:48.807Z,102578.45
2023-02-12T15:21:26.887Z,102583.77
2023-02-12T15:24:02.760Z,102573.62
2023-02-12T15:26:34.228Z,102569.36
2023-02-12T15:29:03.271Z,102573.01
2023-02-12T15:31:33.664Z,102571.85
2023-02-12T15:34:04.261Z,102562.59
2023-02-12T15:36:37.498Z,102561.65
2023-02-12T15:39:09.152Z,102550.64
2023-02-12T15:41:40.355Z,102543.87
2023-02-12T15:44:19.467Z,102537.67
2023-02-12T15:47:18.048Z,102539.77
2023-02-12T15:49:46.437Z,102546.15
2023-02-12T15:52:47.873Z,102538.09
2023-02-12T15:55:19.339Z,102532.73
2023-02-12T15:58:01.170Z,102529.31
2023-02-12T16:00:43.490Z,102529.48
2023-02-12T16:03:31.408Z,102536.05
2023-02-12T16:06:02.988Z,102535.70
2023-02-12T16:08:34.157Z,102543.84
2023-02-12T16:11:13.871Z,102545.26
2023-02-12T16:13:52.728Z,102534.35
2023-02-12T16:16:29.215Z,102548.16
2023-02-12T16:19:15.975Z,102556.44
2023-02-12T16:21:46.131Z,102556.75
2023-02-12T16:24:35.521Z,102557.27
2023-02-12T16:27:20.179Z,102560.45
2023-02-12T16:29:57.889Z,102555.84
2023-02-12T16:32:43.892Z,102561.92
2023-02-12T16:35:12.143Z,102562.98
2023-02-12T16:37:49.669Z,102555.59
2023-02-12T16:40:21.924Z,102558.02
2023-02-12T16:42:50.005Z,102555.97
2023-02-12T16:45:32.249Z,102569.61
2023-02-12T16:48:16.355Z,102570.83
2023-02-12T16:50:54.512Z,102566.67
2023-02-12T16:53:29.937Z,102559.59
2023-02-12T16:55:59.674Z,102564.08
2023-02-12T16:58:28.672Z,102566.14
2023-02-12T17:00:58.226Z,102563.25
2023-02-12T17:03:26.509Z,102563.88
2023-02-12T17:05:55.249Z,102564.45
2023-02-12T17:08:24.388Z,102564.29
2023-02-12T17:10:53.207Z,102561.22
2023-02-12T17:13:21.353Z,102550.39
2023-02-12T17:15:59.059Z,102554.94
2023-02-12T17:18:28.637Z,102552.58
2023-02-12T17:21:02.317Z,102553.68
2023-02-12T17:23:33.502Z,102552.64
2023-02-12T17:26:01.671Z,102551.77
2023-02-12T17:28:29.932Z,102550.25
2023-02-12T17:30:58.707Z,102553.02
2023-02-12T17:33:27.832Z,102552.02
2023-02-12T17:35:58.632Z,102549.48
2023-02-12T17:38:26.778Z,102539.00
2023-02-12T17:40:55.313Z,102542.33
2023-02-12T17:43:24.218Z,102547.38
2023-02-12T17:45:53.521Z,102537.08
2023-02-12T17:48:23.441Z,102538.69
2023-02-12T17:50:57.997Z,102539.79
2023-02-12T17:53:26.310Z,102537.61
2023-02-12T17:55:54.431Z,102527.67
2023-02-12T17:58:22.504Z,102525.84
2023-02-12T18:00:50.649Z,102525.89
2023-02-12T18:03:18.844Z,102524.02
2023-02-12T18:05:47.268Z,102519.05
2023-02-12T18:08:15.427Z,102518.96
2023-02-12T18:10:44.742Z,102515.53
2023-02-12T18:13:14.138Z,102510.04
2023-02-12T18:15:42.272Z,102509.73
2023-02-12T18:18:10.392Z,102508.40
2023-02-12T18:20:41.018Z,102512.57
2023-02-12T18:23:10.532Z,102511.20
2023-02-12T18:25:43.529Z,102504.14
2023-02-12T18:28:12.221Z,102499.54
2023-02-12T18:30:42.947Z,102498.70
2023-02-12T18:33:12.784Z,102498.38
2023-02-12T18:35:41.870Z,102495.67
2023-02-12T18:38:10.597Z,102499.09
2023-02-12T18:40:41.737Z,102508.21
2023-02-12T18:43:09.814Z,102508.92
2023-02-12T18:45:39.820Z,102510.31
2023-02-12T18:48:09.409Z,102505.52
2023-02-12T18:50:38.036Z,102504.51
2023-02-12T18:53:06.355Z,102504.04
2023-02-12T18:55:34.465Z,102500.31
2023-02-12T18:58:02.648Z,102499.52
2023-02-12T19:00:30.720Z,102500.14
2023-02-12T19:02:58.862Z,102501.40
2023-02-12T19:05:27.112Z,102497.98
2023-02-12T19:07:55.851Z,102494.72
2023-02-12T19:10:23.939Z,102496.33
2023-02-12T19:12:52.348Z,102500.88
2023-02-12T19:15:20.561Z,102493.63
2023-02-12T19:17:48.966Z,102486.59
2023-02-12T19:20:17.519Z,102482.83
2023-02-12T19:22:46.519Z,102479.92
2023-02-12T19:25:15.249Z,102476.16
2023-02-12T19:27:43.471Z,102474.30
2023-02-12T19:30:12.067Z,102473.48
2023-02-12T19:32:40.215Z,102475.94
2023-02-12T19:35:08.436Z,102475.48
2023-02-12T19:37:36.595Z,102481.90
2023-02-12T19:40:05.105Z,102482.75
2023-02-12T19:42:33.876Z,102480.48
2023-02-12T19:45:02.064Z,102479.30
2023-02-12T19:47:30.412Z,102475.16
2023-02-12T19:49:58.507Z,102475.50
2023-02-12T19:52:26.600Z,102471.35
2023-02-12T19:54:54.669Z,102474.64
2023-02-12T19:57:22.773Z,102468.08
2023-02-12T19:59:50.856Z,102469.97
2023-02-12T20:02:19.142Z,102461.86
2023-02-12T20:04:47.771Z,102473.96
2023-02-12T20:07:15.916Z,102464.12
2023-02-12T20:09:44.349Z,102467.39
2023-02-12T20:12:12.758Z,102463.08
2023-02-12T20:14:40.824Z,102463.11
2023-02-12T20:17:09.013Z,102472.98
2023-02-12T20:19:37.259Z,102478.17
2023-02-12T20:22:05.516Z,102468.50
2023-02-12T20:24:34.180Z,102469.02
2023-02-12T20:27:03.339Z,102471.27
2023-02-12T20:29:31.485Z,102475.63
2023-02-12T20:31:59.668Z,102467.68
2023-02-12T20:34:27.926Z,102470.48
2023-02-12T20:36:56.100Z,102469.62
2023-02-12T20:39:24.637Z,102469.96
2023-02-12T20:41:52.730Z,102468.09
2023-02-12T20:44:22.222Z,102467.60
2023-02-12T20:46:56.424Z,102462.07
2023-02-12T20:49:25.594Z,102466.25
2023-02-12T20:51:54.365Z,102463.14
2023-02-12T20:54:22.839Z,102459.68
2023-02-12T20:56:51.047Z,102463.31
2023-02-12T20:59:19.339Z,102463.48
2023-02-12T21:01:48.117Z,102464.83
2023-02-12T21:04:18.439Z,102463.63
2023-02-12T21:06:48.717Z,102457.58
2023-02-12T21:09:17.613Z,102462.93
2023-02-12T21:11:46.051Z,102466.04
2023-02-12T21:14:24.210Z,102465.34
2023-02-12T21:16:54.791Z,102467.42
2023-02-12T21:19:23.420Z,102467.80
2023-02-12T21:21:52.062Z,102465.23
2023-02-12T21:24:23.771Z,102475.23
2023-02-12T21:26:54.906Z,102477.12
2023-02-12T21:29:26.673Z,102476.06
2023-02-12T21:31:55.711Z,102476.94
2023-02-12T21:34:24.012Z,102478.84
2023-02-12T21:36:55.353Z,102479.16
2023-02-12T21:39:27.795Z,102475.86
2023-02-12T21:42:02.982Z,102480.17
2023-02-12T21:44:35.445Z,102479.31
2023-02-12T21:47:04.618Z,102474.45
2023-02-12T21:49:32.915Z,102473.05
2023-02-12T21:52:03.657Z,102476.15
2023-02-12T21:54:31.919Z,102486.16
2023-02-12T21:57:00.316Z,102477.00
2023-02-12T21:59:31.773Z,102476.65
2023-02-12T22:02:01.870Z,102470.42
2023-02-12T22:04:30.040Z,102468.67
2023-02-12T22:06:59.724Z,102468.99
2023-02-12T22:09:27.785Z,102473.66
2023-02-12T22:11:55.937Z,102479.72
2023-02-12T22:14:24.130Z,102474.37
2023-02-12T22:16:52.315Z,102472.14
2023-02-12T22:19:20.431Z,102476.14
2023-02-12T22:21:51.573Z,102466.81
2023-02-12T22:24:20.925Z,102478.90
2023-02-12T22:26:49.154Z,102467.52
2023-02-12T22:29:18.171Z,102468.72
2023-02-12T22:31:47.418Z,102465.45
2023-02-12T22:34:19.038Z,102467.51
2023-02-12T22:36:47.590Z,102465.08
2023-02-12T22:39:17.639Z,102468.52
2023-02-12T22:41:46.490Z,102466.63
2023-02-12T22:44:16.253Z,102461.94
2023-02-12T22:46:45.102Z,102461.74
2023-02-12T22:49:14.016Z,102459.48
2023-02-12T22:51:42.556Z,102463.80
2023-02-12T22:54:15.082Z,102468.97
2023-02-12T22:56:44.402Z,102465.84
2023-02-12T22:59:13.121Z,102464.77
2023-02-12T23:01:41.920Z,102466.47
2023-02-12T23:04:18.215Z,102466.62
2023-02-12T23:06:47.019Z,102462.80
2023-02-12T23:09:18.999Z,102461.23
2023-02-12T23:11:48.132Z,102464.83
2023-02-12T23:14:16.481Z,102461.69
2023-02-12T23:16:45.021Z,102460.63
2023-02-12T23:19:13.722Z,102451.27
2023-02-12T23:21:42.123Z,102452.14
2023-02-12T23:24:14.551Z,102448.67
2023-02-12T23:26:43.070Z,102447.08
2023-02-12T23:29:11.386Z,102452.73
2023-02-12T23:31:39.869Z,102452.35
2023-02-12T23:34:08.208Z,102452.16
2023-02-12T23:36:36.423Z,102454.05
2023-02-12T23:39:06.148Z,102446.61
2023-02-12T23:41:34.477Z,102447.48
2023-02-12T23:44:03.090Z,102445.77
2023-02-12T23:46:31.821Z,102449.56
2023-02-12T23:49:00.015Z,102447.29
2023-02-12T23:51:28.192Z,102452.64
2023-02-12T23:53:56.435Z,102451.91
2023-02-12T23:56:25.188Z,102451.73
2023-02-12T23:58:57.411Z,102456.38
